HISTORICAL SENSOR DATA

Sensor Data Report

DB LIVE
CURRENT TIME--:--:--
DEVICE NETWORK Gateway Status
13 ESP · realtime ~1s · history 60s
Weather WS-MOD-01
OFFLINE
Actuator ACT-MOD-01
OFFLINE
Mainboard L3 MB-L3-01
ONLINE
Mainboard L5 MB-L5-01
OFFLINE
Remote AC AC-REMOTE-01
OFFLINE
PZEM L3-01 PWR-L3-01
OFFLINE
PZEM L3-02 PWR-L3-02
OFFLINE
PZEM L3-03 PWR-L3-03
OFFLINE
PZEM L3-04 PWR-L3-04
OFFLINE
PZEM L5-01 PWR-L5-01
OFFLINE
PZEM L5-02 PWR-L5-02
OFFLINE
PZEM L5-03 PWR-L5-03
OFFLINE
PZEM L5-04 PWR-L5-04
OFFLINE
REPORT FILTER

Periode & Sensor

DATABASE HISTORY
RESET
QUICK RANGE Hari ini 7 hari 30 hari
PERIODE08 Aug 2026sampai 06 Sep 2026
TOTAL DATA47,669sensor readings
MINIMUM-0.50sesuai filter
AVERAGE92.79sesuai filter
MAXIMUM32,564.20sesuai filter
REPORT RESULT

Data Sensor

08/08/2026 — 06/09/2026 EXPORT CSV
NOTANGGALWAKTUDEVICECHANNELSENSORVALUEUNIT
2301 06/09/2026 16:51:00 MB-L3-01Mainboard Lantai 3 L3-LUX-04 Illuminance / LUX 4 108.90 lux
2302 06/09/2026 16:51:00 MB-L3-01Mainboard Lantai 3 L3-LUX-06 Illuminance / LUX 6 476.90 lux
2303 06/09/2026 16:51:00 MB-L3-01Mainboard Lantai 3 L3-SHT-01-RH SHT20 1 Humidity 40.00 %RH
2304 06/09/2026 16:51:00 MB-L3-01Mainboard Lantai 3 L3-AI-05 Analog Input 5 3.12 V
2305 06/09/2026 16:51:00 MB-L3-01Mainboard Lantai 3 L3-LUX-05 Illuminance / LUX 5 561.00 lux
2306 06/09/2026 16:51:00 MB-L3-01Mainboard Lantai 3 L3-LUX-01 Illuminance / LUX 1 140.20 lux
2307 06/09/2026 16:51:00 MB-L3-01Mainboard Lantai 3 L3-SHT-03-T SHT20 3 Temperature 30.60 °C
2308 06/09/2026 16:51:00 MB-L3-01Mainboard Lantai 3 L3-AI-03 Analog Input 3 3.12 V
2309 06/09/2026 16:51:00 MB-L3-01Mainboard Lantai 3 L3-SHT-01-T SHT20 1 Temperature 30.70 °C
2310 06/09/2026 16:51:00 MB-L3-01Mainboard Lantai 3 L3-LUX-03 Illuminance / LUX 3 196.80 lux
2311 06/09/2026 16:51:00 MB-L3-01Mainboard Lantai 3 L3-RAD-02 Radiation 2 1.00 W/m²
2312 06/09/2026 16:51:00 MB-L3-01Mainboard Lantai 3 L3-AI-01 Analog Input 1 3.12 V
2313 06/09/2026 16:51:00 MB-L3-01Mainboard Lantai 3 L3-SHT-02-T SHT20 2 Temperature 30.90 °C
2314 06/09/2026 16:51:00 MB-L3-01Mainboard Lantai 3 L3-LUX-02 Illuminance / LUX 2 206.90 lux
2315 06/09/2026 16:51:00 MB-L3-01Mainboard Lantai 3 L3-AI-06 Analog Input 6 3.12 V
2316 06/09/2026 16:50:00 MB-L3-01Mainboard Lantai 3 L3-LUX-04 Illuminance / LUX 4 113.20 lux
2317 06/09/2026 16:50:00 MB-L3-01Mainboard Lantai 3 L3-LUX-06 Illuminance / LUX 6 510.40 lux
2318 06/09/2026 16:50:00 MB-L3-01Mainboard Lantai 3 L3-SHT-01-RH SHT20 1 Humidity 39.90 %RH
2319 06/09/2026 16:50:00 MB-L3-01Mainboard Lantai 3 L3-AI-05 Analog Input 5 3.12 V
2320 06/09/2026 16:50:00 MB-L3-01Mainboard Lantai 3 L3-LUX-05 Illuminance / LUX 5 574.10 lux
2321 06/09/2026 16:50:00 MB-L3-01Mainboard Lantai 3 L3-LUX-01 Illuminance / LUX 1 147.60 lux
2322 06/09/2026 16:50:00 MB-L3-01Mainboard Lantai 3 L3-SHT-03-T SHT20 3 Temperature 30.60 °C
2323 06/09/2026 16:50:00 MB-L3-01Mainboard Lantai 3 L3-AI-03 Analog Input 3 3.12 V
2324 06/09/2026 16:50:00 MB-L3-01Mainboard Lantai 3 L3-SHT-01-T SHT20 1 Temperature 30.70 °C
2325 06/09/2026 16:50:00 MB-L3-01Mainboard Lantai 3 L3-LUX-03 Illuminance / LUX 3 205.10 lux
2326 06/09/2026 16:50:00 MB-L3-01Mainboard Lantai 3 L3-RAD-02 Radiation 2 1.00 W/m²
2327 06/09/2026 16:50:00 MB-L3-01Mainboard Lantai 3 L3-AI-01 Analog Input 1 3.12 V
2328 06/09/2026 16:50:00 MB-L3-01Mainboard Lantai 3 L3-SHT-02-T SHT20 2 Temperature 30.80 °C
2329 06/09/2026 16:50:00 MB-L3-01Mainboard Lantai 3 L3-LUX-02 Illuminance / LUX 2 217.50 lux
2330 06/09/2026 16:50:00 MB-L3-01Mainboard Lantai 3 L3-AI-06 Analog Input 6 3.12 V
2331 06/09/2026 16:50:00 MB-L3-01Mainboard Lantai 3 L3-SHT-02-RH SHT20 2 Humidity 39.70 %RH
2332 06/09/2026 16:50:00 MB-L3-01Mainboard Lantai 3 L3-AI-04 Analog Input 4 3.12 V
2333 06/09/2026 16:50:00 MB-L3-01Mainboard Lantai 3 L3-SHT-03-RH SHT20 3 Humidity 40.50 %RH
2334 06/09/2026 16:50:00 MB-L3-01Mainboard Lantai 3 L3-AI-02 Analog Input 2 3.12 V
2335 06/09/2026 16:50:00 MB-L3-01Mainboard Lantai 3 L3-RAD-01 Radiation 1 1.00 W/m²
2336 06/09/2026 16:49:00 MB-L5-01Mainboard Lantai 5 L5-BGT-03 Black Globe Temperature 3 29.20 °C
2337 06/09/2026 16:49:00 MB-L5-01Mainboard Lantai 5 L5-RAD-01 Radiation 1 2.00 W/m²
2338 06/09/2026 16:49:00 MB-L5-01Mainboard Lantai 5 L5-RAD-02 Radiation 2 2.00 W/m²
2339 06/09/2026 16:49:00 MB-L3-01Mainboard Lantai 3 L3-AI-05 Analog Input 5 3.12 V
2340 06/09/2026 16:49:00 MB-L3-01Mainboard Lantai 3 L3-LUX-05 Illuminance / LUX 5 574.40 lux
2341 06/09/2026 16:49:00 MB-L5-01Mainboard Lantai 5 L5-BGT-01 Black Globe Temperature 1 29.50 °C
2342 06/09/2026 16:49:00 MB-L3-01Mainboard Lantai 3 L3-LUX-01 Illuminance / LUX 1 153.70 lux
2343 06/09/2026 16:49:00 MB-L5-01Mainboard Lantai 5 L5-SHT-01-RH SHT20 1 Humidity 37.10 %RH
2344 06/09/2026 16:49:00 MB-L3-01Mainboard Lantai 3 L3-SHT-03-T SHT20 3 Temperature 30.60 °C
2345 06/09/2026 16:49:00 MB-L3-01Mainboard Lantai 3 L3-AI-03 Analog Input 3 3.12 V
2346 06/09/2026 16:49:00 MB-L5-01Mainboard Lantai 5 L5-LUX-01 Illuminance / LUX 1 163.10 lux
2347 06/09/2026 16:49:00 MB-L5-01Mainboard Lantai 5 L5-SHT-01-T SHT20 1 Temperature 32.90 °C
2348 06/09/2026 16:49:00 MB-L3-01Mainboard Lantai 3 L3-SHT-01-T SHT20 1 Temperature 30.80 °C
2349 06/09/2026 16:49:00 MB-L3-01Mainboard Lantai 3 L3-LUX-03 Illuminance / LUX 3 210.70 lux
2350 06/09/2026 16:49:00 MB-L5-01Mainboard Lantai 5 L5-AI-06 Analog Input 6 3.05 V
2351 06/09/2026 16:49:00 MB-L3-01Mainboard Lantai 3 L3-RAD-02 Radiation 2 1.00 W/m²
2352 06/09/2026 16:49:00 MB-L3-01Mainboard Lantai 3 L3-AI-01 Analog Input 1 3.12 V
2353 06/09/2026 16:49:00 MB-L3-01Mainboard Lantai 3 L3-SHT-02-T SHT20 2 Temperature 30.90 °C
2354 06/09/2026 16:49:00 MB-L5-01Mainboard Lantai 5 L5-AI-04 Analog Input 4 3.05 V
2355 06/09/2026 16:49:00 MB-L5-01Mainboard Lantai 5 L5-SHT-02-T SHT20 2 Temperature 31.60 °C
2356 06/09/2026 16:49:00 MB-L5-01Mainboard Lantai 5 L5-HFT-01 Heat Flow Temperature 1 32.60 °C
2357 06/09/2026 16:49:00 MB-L3-01Mainboard Lantai 3 L3-LUX-02 Illuminance / LUX 2 226.40 lux
2358 06/09/2026 16:49:00 MB-L5-01Mainboard Lantai 5 L5-AI-02 Analog Input 2 3.05 V
2359 06/09/2026 16:49:00 WS-MOD-01Weather Station Module WS-WIND Kecepatan Angin 11.32 m/s
2360 06/09/2026 16:49:00 WS-MOD-01Weather Station Module WS-DIR Arah Angin 132.30 °
2361 06/09/2026 16:49:00 MB-L3-01Mainboard Lantai 3 L3-AI-06 Analog Input 6 3.12 V
2362 06/09/2026 16:49:00 WS-MOD-01Weather Station Module WS-TEMP Suhu Udara 25.60 °C
2363 06/09/2026 16:49:00 MB-L5-01Mainboard Lantai 5 L5-ST-01 Surface Temperature 1 31.90 °C
2364 06/09/2026 16:49:00 WS-MOD-01Weather Station Module WS-RH Kelembapan Udara 56.20 %RH
2365 06/09/2026 16:49:00 MB-L5-01Mainboard Lantai 5 L5-SHT-02-RH SHT20 2 Humidity 39.30 %RH
2366 06/09/2026 16:49:00 MB-L5-01Mainboard Lantai 5 L5-BGT-02 Black Globe Temperature 2 28.70 °C
2367 06/09/2026 16:49:00 WS-MOD-01Weather Station Module WS-PRES Tekanan Udara 908.00 hPa
2368 06/09/2026 16:49:00 MB-L5-01Mainboard Lantai 5 L5-SHT-03-T SHT20 3 Temperature 32.20 °C
2369 06/09/2026 16:49:00 MB-L3-01Mainboard Lantai 3 L3-SHT-02-RH SHT20 2 Humidity 39.70 %RH
2370 06/09/2026 16:49:00 MB-L5-01Mainboard Lantai 5 L5-LUX-06 Illuminance / LUX 6 306.80 lux
2371 06/09/2026 16:49:00 MB-L3-01Mainboard Lantai 3 L3-AI-04 Analog Input 4 3.12 V
2372 06/09/2026 16:49:00 MB-L5-01Mainboard Lantai 5 L5-SHT-03-RH SHT20 3 Humidity 38.90 %RH
2373 06/09/2026 16:49:00 MB-L3-01Mainboard Lantai 3 L3-SHT-03-RH SHT20 3 Humidity 40.40 %RH
2374 06/09/2026 16:49:00 MB-L3-01Mainboard Lantai 3 L3-AI-02 Analog Input 2 3.12 V
2375 06/09/2026 16:49:00 MB-L3-01Mainboard Lantai 3 L3-RAD-01 Radiation 1 1.00 W/m²
2376 06/09/2026 16:49:00 MB-L5-01Mainboard Lantai 5 L5-LUX-05 Illuminance / LUX 5 897.10 lux
2377 06/09/2026 16:49:00 MB-L5-01Mainboard Lantai 5 L5-LUX-03 Illuminance / LUX 3 328.90 lux
2378 06/09/2026 16:49:00 MB-L5-01Mainboard Lantai 5 L5-AI-05 Analog Input 5 3.05 V
2379 06/09/2026 16:49:00 MB-L3-01Mainboard Lantai 3 L3-LUX-04 Illuminance / LUX 4 115.90 lux
2380 06/09/2026 16:49:00 MB-L5-01Mainboard Lantai 5 L5-LUX-04 Illuminance / LUX 4 157.50 lux
2381 06/09/2026 16:49:00 MB-L5-01Mainboard Lantai 5 L5-HFT-02 Heat Flow Temperature 2 29.60 °C
2382 06/09/2026 16:49:00 MB-L3-01Mainboard Lantai 3 L3-LUX-06 Illuminance / LUX 6 536.90 lux
2383 06/09/2026 16:49:00 MB-L5-01Mainboard Lantai 5 L5-AI-03 Analog Input 3 3.05 V
2384 06/09/2026 16:49:00 MB-L5-01Mainboard Lantai 5 L5-ST-02 Surface Temperature 2 29.70 °C
2385 06/09/2026 16:49:00 MB-L5-01Mainboard Lantai 5 L5-AI-01 Analog Input 1 3.05 V
2386 06/09/2026 16:49:00 MB-L3-01Mainboard Lantai 3 L3-SHT-01-RH SHT20 1 Humidity 40.00 %RH
2387 06/09/2026 16:49:00 MB-L5-01Mainboard Lantai 5 L5-LUX-02 Illuminance / LUX 2 652.50 lux
2388 06/09/2026 16:48:00 MB-L3-01Mainboard Lantai 3 L3-SHT-01-T SHT20 1 Temperature 30.70 °C
2389 06/09/2026 16:48:00 MB-L3-01Mainboard Lantai 3 L3-LUX-03 Illuminance / LUX 3 213.80 lux
2390 06/09/2026 16:48:00 MB-L5-01Mainboard Lantai 5 L5-AI-06 Analog Input 6 3.05 V
2391 06/09/2026 16:48:00 MB-L3-01Mainboard Lantai 3 L3-RAD-02 Radiation 2 1.00 W/m²
2392 06/09/2026 16:48:00 MB-L3-01Mainboard Lantai 3 L3-AI-01 Analog Input 1 3.12 V
2393 06/09/2026 16:48:00 MB-L3-01Mainboard Lantai 3 L3-SHT-02-T SHT20 2 Temperature 30.90 °C
2394 06/09/2026 16:48:00 MB-L5-01Mainboard Lantai 5 L5-AI-04 Analog Input 4 3.05 V
2395 06/09/2026 16:48:00 MB-L5-01Mainboard Lantai 5 L5-SHT-02-T SHT20 2 Temperature 31.60 °C
2396 06/09/2026 16:48:00 MB-L5-01Mainboard Lantai 5 L5-HFT-01 Heat Flow Temperature 1 32.70 °C
2397 06/09/2026 16:48:00 MB-L3-01Mainboard Lantai 3 L3-LUX-02 Illuminance / LUX 2 235.10 lux
2398 06/09/2026 16:48:00 MB-L5-01Mainboard Lantai 5 L5-AI-02 Analog Input 2 3.05 V
2399 06/09/2026 16:48:00 WS-MOD-01Weather Station Module WS-WIND Kecepatan Angin 14.80 m/s
2400 06/09/2026 16:48:00 WS-MOD-01Weather Station Module WS-DIR Arah Angin 132.70 °
Menampilkan maksimal 100 data per halaman